sensor_id;sensor_type;location;lat;lon;timestamp;pressure;altitude;pressure_sealevel;temperature;humidity
8699;BME280;4386;51.236;6.742;2022-12-13T00:00:33;100792.84;;;0.86;75.86
8699;BME280;4386;51.236;6.742;2022-12-13T00:01:54;100782.41;;;0.86;75.03
8699;BME280;4386;51.236;6.742;2022-12-13T00:02:57;100785.91;;;0.85;75.98
8699;BME280;4386;51.236;6.742;2022-12-13T00:04:03;100791.97;;;0.86;75.73
8699;BME280;4386;51.236;6.742;2022-12-13T00:05:06;100785.97;;;0.84;75.49
8699;BME280;4386;51.236;6.742;2022-12-13T00:06:10;100783.38;;;0.84;75.84
8699;BME280;4386;51.236;6.742;2022-12-13T00:07:12;100792.94;;;0.83;75.83
8699;BME280;4386;51.236;6.742;2022-12-13T00:08:14;100791.19;;;0.84;75.32
8699;BME280;4386;51.236;6.742;2022-12-13T00:09:17;100784.34;;;0.81;75.45
8699;BME280;4386;51.236;6.742;2022-12-13T00:10:21;100779.97;;;0.82;76.00
8699;BME280;4386;51.236;6.742;2022-12-13T00:11:23;100779.13;;;0.81;76.04
8699;BME280;4386;51.236;6.742;2022-12-13T00:12:35;100781.66;;;0.83;75.88
8699;BME280;4386;51.236;6.742;2022-12-13T00:13:38;100785.19;;;0.82;75.66
8699;BME280;4386;51.236;6.742;2022-12-13T00:14:41;100776.53;;;0.81;75.47
8699;BME280;4386;51.236;6.742;2022-12-13T00:15:54;100780.81;;;0.82;75.54
8699;BME280;4386;51.236;6.742;2022-12-13T00:16:56;100780.81;;;0.82;75.03
8699;BME280;4386;51.236;6.742;2022-12-13T00:17:58;100783.50;;;0.81;76.04
8699;BME280;4386;51.236;6.742;2022-12-13T00:19:01;100778.28;;;0.81;75.98
8699;BME280;4386;51.236;6.742;2022-12-13T00:20:04;100783.50;;;0.81;76.09
8699;BME280;4386;51.236;6.742;2022-12-13T00:21:07;100776.56;;;0.80;75.62
8699;BME280;4386;51.236;6.742;2022-12-13T00:22:10;100778.28;;;0.81;75.84
8699;BME280;4386;51.236;6.742;2022-12-13T00:23:13;100788.69;;;0.81;75.56
8699;BME280;4386;51.236;6.742;2022-12-13T00:24:14;100773.06;;;0.81;75.98
8699;BME280;4386;51.236;6.742;2022-12-13T00:25:17;100783.50;;;0.81;75.88
8699;BME280;4386;51.236;6.742;2022-12-13T00:26:24;100780.06;;;0.79;75.85
8699;BME280;4386;51.236;6.742;2022-12-13T00:27:26;100783.53;;;0.79;75.77
8699;BME280;4386;51.236;6.742;2022-12-13T00:28:28;100782.69;;;0.79;75.96
8699;BME280;4386;51.236;6.742;2022-12-13T00:29:31;100784.47;;;0.78;75.55
8699;BME280;4386;51.236;6.742;2022-12-13T00:30:34;100776.69;;;0.77;75.54
8699;BME280;4386;51.236;6.742;2022-12-13T00:31:37;100783.59;;;0.78;75.81
8699;BME280;4386;51.236;6.742;2022-12-13T00:32:59;100774.97;;;0.76;75.80
8699;BME280;4386;51.236;6.742;2022-12-13T00:34:03;100775.81;;;0.76;75.66
8699;BME280;4386;51.236;6.742;2022-12-13T00:35:05;100779.34;;;0.75;75.55
8699;BME280;4386;51.236;6.742;2022-12-13T00:36:09;100774.97;;;0.76;75.80
8699;BME280;4386;51.236;6.742;2022-12-13T00:37:11;100774.97;;;0.76;75.85
8699;BME280;4386;51.236;6.742;2022-12-13T00:38:22;100773.28;;;0.75;75.27
8699;BME280;4386;51.236;6.742;2022-12-13T00:39:24;100778.44;;;0.76;75.42
8699;BME280;4386;51.236;6.742;2022-12-13T00:40:27;100778.50;;;0.75;75.58
8699;BME280;4386;51.236;6.742;2022-12-13T00:41:31;100778.50;;;0.75;75.00
8699;BME280;4386;51.236;6.742;2022-12-13T00:42:34;100784.56;;;0.75;75.59
8699;BME280;4386;51.236;6.742;2022-12-13T00:43:37;100774.19;;;0.74;75.45
8699;BME280;4386;51.236;6.742;2022-12-13T00:44:39;100780.28;;;0.73;75.91
8699;BME280;4386;51.236;6.742;2022-12-13T00:45:41;100780.28;;;0.73;75.19
8699;BME280;4386;51.236;6.742;2022-12-13T00:46:43;100770.78;;;0.72;75.58
8699;BME280;4386;51.236;6.742;2022-12-13T00:47:45;100773.41;;;0.72;75.74
8699;BME280;4386;51.236;6.742;2022-12-13T00:48:48;100769.97;;;0.70;75.32
8699;BME280;4386;51.236;6.742;2022-12-13T00:49:53;100769.97;;;0.70;75.73
8699;BME280;4386;51.236;6.742;2022-12-13T00:50:54;100773.53;;;0.69;75.42
8699;BME280;4386;51.236;6.742;2022-12-13T00:51:57;100772.66;;;0.68;75.43
8699;BME280;4386;51.236;6.742;2022-12-13T00:53:00;100770.94;;;0.67;75.02
8699;BME280;4386;51.236;6.742;2022-12-13T00:54:02;100768.38;;;0.66;75.76
8699;BME280;4386;51.236;6.742;2022-12-13T00:55:06;100765.78;;;0.66;75.79
8699;BME280;4386;51.236;6.742;2022-12-13T00:56:09;100773.59;;;0.66;75.26
8699;BME280;4386;51.236;6.742;2022-12-13T00:57:13;100765.84;;;0.64;75.21
8699;BME280;4386;51.236;6.742;2022-12-13T00:58:15;100767.59;;;0.64;75.73
8699;BME280;4386;51.236;6.742;2022-12-13T00:59:20;100774.56;;;0.63;75.30
8699;BME280;4386;51.236;6.742;2022-12-13T01:00:23;100771.09;;;0.63;75.67
8699;BME280;4386;51.236;6.742;2022-12-13T01:01:28;100778.03;;;0.64;75.36
8699;BME280;4386;51.236;6.742;2022-12-13T01:02:31;100769.34;;;0.63;75.40
8699;BME280;4386;51.236;6.742;2022-12-13T01:03:43;100769.34;;;0.63;75.66
8699;BME280;4386;51.236;6.742;2022-12-13T01:04:48;100765.91;;;0.63;74.91
8699;BME280;4386;51.236;6.742;2022-12-13T01:05:52;100762.47;;;0.62;75.49
8699;BME280;4386;51.236;6.742;2022-12-13T01:07:13;100765.06;;;0.62;75.65
8699;BME280;4386;51.236;6.742;2022-12-13T01:08:16;100768.50;;;0.63;75.58
8699;BME280;4386;51.236;6.742;2022-12-13T01:09:19;100765.97;;;0.61;75.54
8699;BME280;4386;51.236;6.742;2022-12-13T01:10:22;100766.81;;;0.62;75.50
8699;BME280;4386;51.236;6.742;2022-12-13T01:11:23;100761.59;;;0.62;75.21
8699;BME280;4386;51.236;6.742;2022-12-13T01:12:26;100764.22;;;0.62;75.38
8699;BME280;4386;51.236;6.742;2022-12-13T01:13:27;100763.38;;;0.61;75.50
8699;BME280;4386;51.236;6.742;2022-12-13T01:14:33;100768.63;;;0.60;75.51
8699;BME280;4386;51.236;6.742;2022-12-13T01:15:39;100763.41;;;0.60;75.72
8699;BME280;4386;51.236;6.742;2022-12-13T01:16:41;100760.78;;;0.60;75.31
8699;BME280;4386;51.236;6.742;2022-12-13T01:17:44;100766.09;;;0.58;75.08
8699;BME280;4386;51.236;6.742;2022-12-13T01:18:47;100770.44;;;0.58;75.85
8699;BME280;4386;51.236;6.742;2022-12-13T01:19:50;100773.03;;;0.58;75.60
8699;BME280;4386;51.236;6.742;2022-12-13T01:21:00;100767.06;;;0.56;75.15
8699;BME280;4386;51.236;6.742;2022-12-13T01:22:05;100772.25;;;0.56;75.32
8699;BME280;4386;51.236;6.742;2022-12-13T01:23:07;100775.66;;;0.58;75.26
8699;BME280;4386;51.236;6.742;2022-12-13T01:24:09;100773.09;;;0.56;75.60
8699;BME280;4386;51.236;6.742;2022-12-13T01:25:12;100771.34;;;0.57;75.46
8699;BME280;4386;51.236;6.742;2022-12-13T01:26:17;100774.03;;;0.55;75.83
8699;BME280;4386;51.236;6.742;2022-12-13T01:27:22;100780.97;;;0.55;75.22
8699;BME280;4386;51.236;6.742;2022-12-13T01:28:23;100775.78;;;0.55;75.75
8699;BME280;4386;51.236;6.742;2022-12-13T01:29:26;100777.53;;;0.54;75.78
8699;BME280;4386;51.236;6.742;2022-12-13T01:30:29;100781.88;;;0.53;75.49
8699;BME280;4386;51.236;6.742;2022-12-13T01:31:31;100774.06;;;0.53;75.31
8699;BME280;4386;51.236;6.742;2022-12-13T01:32:34;100778.41;;;0.53;75.37
8699;BME280;4386;51.236;6.742;2022-12-13T01:33:38;100785.38;;;0.52;75.48
8699;BME280;4386;51.236;6.742;2022-12-13T01:34:41;100778.50;;;0.51;75.67
8699;BME280;4386;51.236;6.742;2022-12-13T01:35:43;100788.00;;;0.52;75.26
8699;BME280;4386;51.236;6.742;2022-12-13T01:36:47;100787.16;;;0.52;75.51
8699;BME280;4386;51.236;6.742;2022-12-13T01:37:52;100781.94;;;0.52;75.71
8699;BME280;4386;51.236;6.742;2022-12-13T01:39:03;100783.69;;;0.51;75.52
8699;BME280;4386;51.236;6.742;2022-12-13T01:40:15;100788.91;;;0.51;75.92
8699;BME280;4386;51.236;6.742;2022-12-13T01:41:20;100790.66;;;0.51;75.39
8699;BME280;4386;51.236;6.742;2022-12-13T01:42:28;100784.59;;;0.50;75.72
8699;BME280;4386;51.236;6.742;2022-12-13T01:43:49;100791.56;;;0.50;75.40
8699;BME280;4386;51.236;6.742;2022-12-13T01:45:03;100788.09;;;0.49;75.46
8699;BME280;4386;51.236;6.742;2022-12-13T01:46:07;100782.06;;;0.49;75.32
8699;BME280;4386;51.236;6.742;2022-12-13T01:47:09;100788.09;;;0.49;75.72
8699;BME280;4386;51.236;6.742;2022-12-13T01:48:16;100788.09;;;0.49;75.25
8699;BME280;4386;51.236;6.742;2022-12-13T01:49:19;100788.09;;;0.49;75.30
8699;BME280;4386;51.236;6.742;2022-12-13T01:50:24;100784.72;;;0.47;75.76
8699;BME280;4386;51.236;6.742;2022-12-13T01:51:31;100786.47;;;0.47;75.89
8699;BME280;4386;51.236;6.742;2022-12-13T01:52:36;100777.78;;;0.46;75.55
8699;BME280;4386;51.236;6.742;2022-12-13T01:53:39;100784.75;;;0.46;75.92
8699;BME280;4386;51.236;6.742;2022-12-13T01:54:47;100777.84;;;0.45;75.61
8699;BME280;4386;51.236;6.742;2022-12-13T01:55:53;100779.59;;;0.44;75.89
8699;BME280;4386;51.236;6.742;2022-12-13T01:57:02;100777.00;;;0.44;75.69
8699;BME280;4386;51.236;6.742;2022-12-13T01:58:05;100782.22;;;0.44;76.07
8699;BME280;4386;51.236;6.742;2022-12-13T01:59:09;100783.97;;;0.44;75.71
8699;BME280;4386;51.236;6.742;2022-12-13T02:00:12;100777.91;;;0.43;75.90
8699;BME280;4386;51.236;6.742;2022-12-13T02:01:15;100776.22;;;0.42;75.95
8699;BME280;4386;51.236;6.742;2022-12-13T02:02:18;100780.56;;;0.42;75.70
8699;BME280;4386;51.236;6.742;2022-12-13T02:03:21;100777.13;;;0.41;75.75
8699;BME280;4386;51.236;6.742;2022-12-13T02:04:28;100778.81;;;0.42;76.00
8699;BME280;4386;51.236;6.742;2022-12-13T02:05:34;100778.88;;;0.41;75.94
8699;BME280;4386;51.236;6.742;2022-12-13T02:06:40;100781.47;;;0.41;76.04
8699;BME280;4386;51.236;6.742;2022-12-13T02:07:46;100780.63;;;0.40;76.02
8699;BME280;4386;51.236;6.742;2022-12-13T02:08:50;100780.63;;;0.40;75.53
8699;BME280;4386;51.236;6.742;2022-12-13T02:09:55;100785.91;;;0.39;75.81
8699;BME280;4386;51.236;6.742;2022-12-13T02:10:58;100780.69;;;0.39;75.73
8699;BME280;4386;51.236;6.742;2022-12-13T02:12:01;100778.09;;;0.39;76.09
8699;BME280;4386;51.236;6.742;2022-12-13T02:13:04;100785.03;;;0.38;75.93
8699;BME280;4386;51.236;6.742;2022-12-13T02:14:07;100791.13;;;0.39;75.99
8699;BME280;4386;51.236;6.742;2022-12-13T02:15:12;100781.50;;;0.39;76.02
8699;BME280;4386;51.236;6.742;2022-12-13T02:16:26;100785.03;;;0.38;75.91
8699;BME280;4386;51.236;6.742;2022-12-13T02:17:44;100784.19;;;0.38;75.67
8699;BME280;4386;51.236;6.742;2022-12-13T02:19:12;100784.22;;;0.36;75.46
8699;BME280;4386;51.236;6.742;2022-12-13T02:20:39;100787.69;;;0.37;75.51
8699;BME280;4386;51.236;6.742;2022-12-13T02:21:49;100784.31;;;0.35;75.55
8699;BME280;4386;51.236;6.742;2022-12-13T02:23:09;100789.50;;;0.35;75.12
8699;BME280;4386;51.236;6.742;2022-12-13T02:24:41;100778.22;;;0.34;75.37
8699;BME280;4386;51.236;6.742;2022-12-13T02:27:42;100781.72;;;0.33;75.70
8699;BME280;4386;51.236;6.742;2022-12-13T02:29:05;100779.19;;;0.32;75.85
8699;BME280;4386;51.236;6.742;2022-12-13T02:30:36;100786.19;;;0.30;75.30
8699;BME280;4386;51.236;6.742;2022-12-13T02:31:43;100780.16;;;0.29;75.43
8699;BME280;4386;51.236;6.742;2022-12-13T02:33:11;100783.66;;;0.28;75.67
8699;BME280;4386;51.236;6.742;2022-12-13T02:34:24;100788.88;;;0.28;75.68
8699;BME280;4386;51.236;6.742;2022-12-13T02:35:33;100782.03;;;0.26;75.76
8699;BME280;4386;51.236;6.742;2022-12-13T02:36:42;100782.84;;;0.26;75.71
8699;BME280;4386;51.236;6.742;2022-12-13T02:37:51;100775.09;;;0.25;75.50
8699;BME280;4386;51.236;6.742;2022-12-13T02:39:02;100780.34;;;0.23;75.42
8699;BME280;4386;51.236;6.742;2022-12-13T02:40:13;100776.91;;;0.23;75.59
8699;BME280;4386;51.236;6.742;2022-12-13T02:41:22;100778.66;;;0.22;75.33
8699;BME280;4386;51.236;6.742;2022-12-13T02:42:31;100783.03;;;0.22;75.31
8699;BME280;4386;51.236;6.742;2022-12-13T02:43:38;100779.56;;;0.21;75.55
8699;BME280;4386;51.236;6.742;2022-12-13T02:44:51;100782.16;;;0.21;75.69
8699;BME280;4386;51.236;6.742;2022-12-13T02:45:58;100782.16;;;0.21;75.65
8699;BME280;4386;51.236;6.742;2022-12-13T02:47:09;100789.09;;;0.22;75.76
8699;BME280;4386;51.236;6.742;2022-12-13T02:48:26;100785.56;;;0.23;75.28
8699;BME280;4386;51.236;6.742;2022-12-13T02:49:39;100780.34;;;0.23;75.07
8699;BME280;4386;51.236;6.742;2022-12-13T02:50:43;100778.66;;;0.22;75.63
8699;BME280;4386;51.236;6.742;2022-12-13T02:51:48;100776.06;;;0.22;75.60
8699;BME280;4386;51.236;6.742;2022-12-13T02:52:50;100778.66;;;0.22;75.63
8699;BME280;4386;51.236;6.742;2022-12-13T02:53:53;100768.28;;;0.21;75.63
8699;BME280;4386;51.236;6.742;2022-12-13T02:54:55;100765.69;;;0.21;74.93
8699;BME280;4386;51.236;6.742;2022-12-13T02:55:58;100767.44;;;0.20;75.31
8699;BME280;4386;51.236;6.742;2022-12-13T02:57:00;100765.69;;;0.21;75.46
8699;BME280;4386;51.236;6.742;2022-12-13T02:58:03;100754.41;;;0.20;75.07
8699;BME280;4386;51.236;6.742;2022-12-13T02:59:10;100771.75;;;0.21;75.31
8699;BME280;4386;51.236;6.742;2022-12-13T03:00:16;100759.63;;;0.20;74.76
8699;BME280;4386;51.236;6.742;2022-12-13T03:01:28;100755.34;;;0.19;75.13
8699;BME280;4386;51.236;6.742;2022-12-13T03:02:51;100753.56;;;0.20;75.11
8699;BME280;4386;51.236;6.742;2022-12-13T03:04:05;100761.38;;;0.20;74.73
8699;BME280;4386;51.236;6.742;2022-12-13T03:05:16;100757.09;;;0.19;74.73
8699;BME280;4386;51.236;6.742;2022-12-13T03:06:50;100763.16;;;0.19;75.11
8699;BME280;4386;51.236;6.742;2022-12-13T03:08:06;100756.22;;;0.18;74.70
8699;BME280;4386;51.236;6.742;2022-12-13T03:09:31;100759.72;;;0.17;74.75
8699;BME280;4386;51.236;6.742;2022-12-13T03:10:43;100764.19;;;0.14;74.29
8699;BME280;4386;51.236;6.742;2022-12-13T03:12:06;100768.47;;;0.16;74.41
8699;BME280;4386;51.236;6.742;2022-12-13T03:13:34;100755.47;;;0.15;74.75
8699;BME280;4386;51.236;6.742;2022-12-13T03:14:44;100763.34;;;0.13;74.51
8699;BME280;4386;51.236;6.742;2022-12-13T03:15:53;100769.47;;;0.12;74.57
8699;BME280;4386;51.236;6.742;2022-12-13T03:17:00;100768.53;;;0.13;74.61
8699;BME280;4386;51.236;6.742;2022-12-13T03:18:07;100761.66;;;0.12;75.03
8699;BME280;4386;51.236;6.742;2022-12-13T03:19:15;100762.56;;;0.11;74.83
8699;BME280;4386;51.236;6.742;2022-12-13T03:20:17;100760.81;;;0.12;74.45
8699;BME280;4386;51.236;6.742;2022-12-13T03:21:24;100760.81;;;0.12;75.03
8699;BME280;4386;51.236;6.742;2022-12-13T03:22:27;100762.56;;;0.11;74.91
8699;BME280;4386;51.236;6.742;2022-12-13T03:23:28;100765.16;;;0.11;74.95
8699;BME280;4386;51.236;6.742;2022-12-13T03:24:38;100762.56;;;0.11;74.90
8699;BME280;4386;51.236;6.742;2022-12-13T03:25:40;100761.69;;;0.11;74.73
8699;BME280;4386;51.236;6.742;2022-12-13T03:26:42;100759.09;;;0.11;74.92
8699;BME280;4386;51.236;6.742;2022-12-13T03:27:44;100756.56;;;0.09;74.83
8699;BME280;4386;51.236;6.742;2022-12-13T03:28:47;100761.75;;;0.09;74.86
8699;BME280;4386;51.236;6.742;2022-12-13T03:29:49;100759.16;;;0.09;74.28
8699;BME280;4386;51.236;6.742;2022-12-13T03:30:51;100760.06;;;0.08;74.55
8699;BME280;4386;51.236;6.742;2022-12-13T03:31:53;100756.59;;;0.08;74.80
8699;BME280;4386;51.236;6.742;2022-12-13T03:32:57;100760.06;;;0.08;74.53
8699;BME280;4386;51.236;6.742;2022-12-13T03:33:59;100762.66;;;0.08;74.88
8699;BME280;4386;51.236;6.742;2022-12-13T03:35:01;100766.13;;;0.09;74.32
8699;BME280;4386;51.236;6.742;2022-12-13T03:36:04;100755.69;;;0.09;74.13
8699;BME280;4386;51.236;6.742;2022-12-13T03:37:07;100751.44;;;0.06;74.13
8699;BME280;4386;51.236;6.742;2022-12-13T03:38:09;100764.41;;;0.08;74.18
8699;BME280;4386;51.236;6.742;2022-12-13T03:39:12;100761.81;;;0.08;74.36
8699;BME280;4386;51.236;6.742;2022-12-13T03:40:14;100754.06;;;0.06;74.36
8699;BME280;4386;51.236;6.742;2022-12-13T03:41:19;100760.09;;;0.07;74.52
8699;BME280;4386;51.236;6.742;2022-12-13T03:42:23;100762.69;;;0.07;74.38
8699;BME280;4386;51.236;6.742;2022-12-13T03:43:26;100756.66;;;0.06;74.52
8699;BME280;4386;51.236;6.742;2022-12-13T03:44:29;100748.03;;;0.04;74.15
8699;BME280;4386;51.236;6.742;2022-12-13T03:45:32;100748.03;;;0.04;74.03
8699;BME280;4386;51.236;6.742;2022-12-13T03:46:34;100751.56;;;0.03;74.19
8699;BME280;4386;51.236;6.742;2022-12-13T03:47:36;100748.03;;;0.04;74.41
8699;BME280;4386;51.236;6.742;2022-12-13T03:48:50;100749.78;;;0.04;74.21
8699;BME280;4386;51.236;6.742;2022-12-13T03:50:03;100750.69;;;0.03;74.05
8699;BME280;4386;51.236;6.742;2022-12-13T03:51:25;100753.25;;;0.04;73.75
8699;BME280;4386;51.236;6.742;2022-12-13T03:52:27;100754.16;;;0.03;73.69
8699;BME280;4386;51.236;6.742;2022-12-13T03:53:30;100756.78;;;0.03;73.85
8699;BME280;4386;51.236;6.742;2022-12-13T03:54:35;100760.19;;;0.04;74.06
8699;BME280;4386;51.236;6.742;2022-12-13T03:55:36;100757.66;;;0.02;74.26
8699;BME280;4386;51.236;6.742;2022-12-13T03:56:39;100749.84;;;0.02;73.96
8699;BME280;4386;51.236;6.742;2022-12-13T03:57:40;100749.84;;;0.02;73.96
8699;BME280;4386;51.236;6.742;2022-12-13T03:58:43;100748.09;;;0.03;73.70
8699;BME280;4386;51.236;6.742;2022-12-13T03:59:45;100744.63;;;0.02;74.24
8699;BME280;4386;51.236;6.742;2022-12-13T04:00:47;100749.00;;;0.02;73.73
8699;BME280;4386;51.236;6.742;2022-12-13T04:01:50;100748.13;;;0.01;74.26
8699;BME280;4386;51.236;6.742;2022-12-13T04:02:52;100748.13;;;0.01;73.73
8699;BME280;4386;51.236;6.742;2022-12-13T04:03:56;100745.59;;;-0.01;73.59
8699;BME280;4386;51.236;6.742;2022-12-13T04:04:57;100744.75;;;-0.01;73.55
8699;BME280;4386;51.236;6.742;2022-12-13T04:10:49;100745.63;;;-0.02;73.63
8699;BME280;4386;51.236;6.742;2022-12-13T04:11:52;100744.84;;;-0.04;73.49
8699;BME280;4386;51.236;6.742;2022-12-13T04:17:32;100746.75;;;-0.09;73.52
8699;BME280;4386;51.236;6.742;2022-12-13T04:18:35;100739.91;;;-0.12;73.67
8699;BME280;4386;51.236;6.742;2022-12-13T04:19:49;100736.44;;;-0.12;73.68
8699;BME280;4386;51.236;6.742;2022-12-13T04:20:51;100741.66;;;-0.12;73.38
8699;BME280;4386;51.236;6.742;2022-12-13T04:21:53;100742.56;;;-0.13;73.56
8699;BME280;4386;51.236;6.742;2022-12-13T04:23:03;100741.66;;;-0.12;73.38
8699;BME280;4386;51.236;6.742;2022-12-13T04:24:11;100746.84;;;-0.12;73.23
8699;BME280;4386;51.236;6.742;2022-12-13T04:25:19;100744.25;;;-0.12;73.80
8699;BME280;4386;51.236;6.742;2022-12-13T04:26:22;100746.00;;;-0.13;73.15
8699;BME280;4386;51.236;6.742;2022-12-13T04:27:33;100740.78;;;-0.13;73.70
8699;BME280;4386;51.236;6.742;2022-12-13T04:28:38;100741.66;;;-0.12;73.45
8699;BME280;4386;51.236;6.742;2022-12-13T04:29:39;100734.75;;;-0.13;73.35
8699;BME280;4386;51.236;6.742;2022-12-13T04:30:42;100738.25;;;-0.14;73.04
8699;BME280;4386;51.236;6.742;2022-12-13T04:31:43;100731.34;;;-0.15;73.57
8699;BME280;4386;51.236;6.742;2022-12-13T04:32:56;100731.34;;;-0.15;73.47
8699;BME280;4386;51.236;6.742;2022-12-13T04:33:58;100731.34;;;-0.15;73.47
8699;BME280;4386;51.236;6.742;2022-12-13T04:35:02;100729.63;;;-0.16;73.56
8699;BME280;4386;51.236;6.742;2022-12-13T04:36:05;100733.09;;;-0.16;73.16
8699;BME280;4386;51.236;6.742;2022-12-13T04:37:08;100731.34;;;-0.15;73.19
8699;BME280;4386;51.236;6.742;2022-12-13T04:38:10;100729.63;;;-0.16;73.14
8699;BME280;4386;51.236;6.742;2022-12-13T04:39:12;100734.84;;;-0.16;73.04
8699;BME280;4386;51.236;6.742;2022-12-13T04:40:23;100734.84;;;-0.16;73.02
8699;BME280;4386;51.236;6.742;2022-12-13T04:41:25;100733.16;;;-0.17;73.06
8699;BME280;4386;51.236;6.742;2022-12-13T04:42:34;100727.09;;;-0.18;73.34
8699;BME280;4386;51.236;6.742;2022-12-13T04:43:37;100730.56;;;-0.17;72.58
8699;BME280;4386;51.236;6.742;2022-12-13T04:44:38;100736.66;;;-0.18;73.58
8699;BME280;4386;51.236;6.742;2022-12-13T04:45:46;100725.38;;;-0.19;73.18
8699;BME280;4386;51.236;6.742;2022-12-13T04:46:50;100731.44;;;-0.18;72.89
8699;BME280;4386;51.236;6.742;2022-12-13T04:47:51;100729.75;;;-0.19;72.81
8699;BME280;4386;51.236;6.742;2022-12-13T04:48:54;100726.34;;;-0.21;73.16
8699;BME280;4386;51.236;6.742;2022-12-13T04:49:57;100727.13;;;-0.19;73.08
8699;BME280;4386;51.236;6.742;2022-12-13T04:51:00;100724.53;;;-0.19;73.10
8699;BME280;4386;51.236;6.742;2022-12-13T04:52:03;100729.75;;;-0.19;72.24
8699;BME280;4386;51.236;6.742;2022-12-13T04:53:04;100728.06;;;-0.20;72.35
8699;BME280;4386;51.236;6.742;2022-12-13T04:54:07;100734.16;;;-0.21;72.69
8699;BME280;4386;51.236;6.742;2022-12-13T04:55:25;100728.94;;;-0.21;72.71
8699;BME280;4386;51.236;6.742;2022-12-13T04:56:28;100734.19;;;-0.23;72.76
8699;BME280;4386;51.236;6.742;2022-12-13T04:57:29;100738.56;;;-0.23;72.44
8699;BME280;4386;51.236;6.742;2022-12-13T04:58:32;100749.81;;;-0.23;72.43
8699;BME280;4386;51.236;6.742;2022-12-13T04:59:34;100731.66;;;-0.24;72.74
8699;BME280;4386;51.236;6.742;2022-12-13T05:00:38;100732.50;;;-0.24;72.48
8699;BME280;4386;51.236;6.742;2022-12-13T05:01:44;100731.66;;;-0.24;72.77
8699;BME280;4386;51.236;6.742;2022-12-13T05:02:47;100729.91;;;-0.24;72.73
8699;BME280;4386;51.236;6.742;2022-12-13T05:03:48;100732.56;;;-0.25;72.39
8699;BME280;4386;51.236;6.742;2022-12-13T05:04:51;100729.09;;;-0.26;72.52
8699;BME280;4386;51.236;6.742;2022-12-13T05:05:54;100729.09;;;-0.26;72.84
8699;BME280;4386;51.236;6.742;2022-12-13T05:06:58;100734.31;;;-0.26;72.53
8699;BME280;4386;51.236;6.742;2022-12-13T05:08:01;100729.94;;;-0.25;72.04
8699;BME280;4386;51.236;6.742;2022-12-13T05:09:04;100732.63;;;-0.27;72.60
8699;BME280;4386;51.236;6.742;2022-12-13T05:10:11;100725.69;;;-0.28;72.42
8699;BME280;4386;51.236;6.742;2022-12-13T05:11:34;100724.84;;;-0.28;72.65
8699;BME280;4386;51.236;6.742;2022-12-13T05:12:45;100721.47;;;-0.30;72.58
8699;BME280;4386;51.236;6.742;2022-12-13T05:13:47;100716.25;;;-0.30;72.54
8699;BME280;4386;51.236;6.742;2022-12-13T05:14:50;100718.88;;;-0.32;72.40
8699;BME280;4386;51.236;6.742;2022-12-13T05:15:54;100733.66;;;-0.32;72.79
8699;BME280;4386;51.236;6.742;2022-12-13T05:16:58;100724.16;;;-0.33;72.24
8699;BME280;4386;51.236;6.742;2022-12-13T05:18:00;100720.72;;;-0.34;72.67
8699;BME280;4386;51.236;6.742;2022-12-13T05:19:11;100718.97;;;-0.33;72.59
8699;BME280;4386;51.236;6.742;2022-12-13T05:20:13;100718.13;;;-0.35;72.75
8699;BME280;4386;51.236;6.742;2022-12-13T05:21:15;100726.88;;;-0.36;72.10
8699;BME280;4386;51.236;6.742;2022-12-13T05:22:19;100721.66;;;-0.36;72.07
8699;BME280;4386;51.236;6.742;2022-12-13T05:23:23;100728.63;;;-0.37;72.59
8699;BME280;4386;51.236;6.742;2022-12-13T05:24:25;100732.06;;;-0.36;72.52
8699;BME280;4386;51.236;6.742;2022-12-13T05:25:27;100731.22;;;-0.37;72.60
8699;BME280;4386;51.236;6.742;2022-12-13T05:26:29;100715.59;;;-0.37;72.60
8699;BME280;4386;51.236;6.742;2022-12-13T05:27:32;100721.69;;;-0.38;72.58
8699;BME280;4386;51.236;6.742;2022-12-13T05:28:33;100726.06;;;-0.38;72.92
8699;BME280;4386;51.236;6.742;2022-12-13T05:29:37;100720.84;;;-0.38;72.70
8699;BME280;4386;51.236;6.742;2022-12-13T05:30:39;100713.97;;;-0.39;72.73
8699;BME280;4386;51.236;6.742;2022-12-13T05:31:41;100718.34;;;-0.41;72.27
8699;BME280;4386;51.236;6.742;2022-12-13T05:32:44;100719.22;;;-0.41;72.96
8699;BME280;4386;51.236;6.742;2022-12-13T05:33:46;100718.34;;;-0.41;72.42
8699;BME280;4386;51.236;6.742;2022-12-13T05:34:48;100703.69;;;-0.44;72.26
8699;BME280;4386;51.236;6.742;2022-12-13T05:35:51;100714.09;;;-0.44;72.38
8699;BME280;4386;51.236;6.742;2022-12-13T05:37:00;100697.63;;;-0.44;72.56
8699;BME280;4386;51.236;6.742;2022-12-13T05:38:04;100709.00;;;-0.47;72.46
8699;BME280;4386;51.236;6.742;2022-12-13T05:39:05;100708.16;;;-0.47;72.51
8699;BME280;4386;51.236;6.742;2022-12-13T05:44:44;100710.06;;;-0.52;72.43
8699;BME280;4386;51.236;6.742;2022-12-13T05:45:46;100711.84;;;-0.55;72.17
8699;BME280;4386;51.236;6.742;2022-12-13T05:46:48;100706.75;;;-0.58;73.03
8699;BME280;4386;51.236;6.742;2022-12-13T05:47:50;100717.16;;;-0.58;72.72
8699;BME280;4386;51.236;6.742;2022-12-13T05:48:52;100711.09;;;-0.58;72.70
8699;BME280;4386;51.236;6.742;2022-12-13T05:49:54;100715.44;;;-0.59;72.53
8699;BME280;4386;51.236;6.742;2022-12-13T05:50:56;100719.81;;;-0.59;72.32
8699;BME280;4386;51.236;6.742;2022-12-13T05:52:16;100708.56;;;-0.60;72.13
8699;BME280;4386;51.236;6.742;2022-12-13T05:53:20;100708.56;;;-0.60;72.75
8699;BME280;4386;51.236;6.742;2022-12-13T05:54:31;100703.34;;;-0.60;72.45
8699;BME280;4386;51.236;6.742;2022-12-13T05:55:35;100709.50;;;-0.62;72.58
8699;BME280;4386;51.236;6.742;2022-12-13T05:56:38;100710.34;;;-0.62;72.49
8699;BME280;4386;51.236;6.742;2022-12-13T05:57:50;100715.63;;;-0.63;72.50
8699;BME280;4386;51.236;6.742;2022-12-13T05:58:52;100711.31;;;-0.64;72.35
8699;BME280;4386;51.236;6.742;2022-12-13T06:00:07;100716.50;;;-0.64;72.50
8699;BME280;4386;51.236;6.742;2022-12-13T06:01:30;100722.56;;;-0.64;72.59
8699;BME280;4386;51.236;6.742;2022-12-13T06:02:36;100719.16;;;-0.66;72.64
8699;BME280;4386;51.236;6.742;2022-12-13T06:03:38;100718.31;;;-0.66;72.59
8699;BME280;4386;51.236;6.742;2022-12-13T06:04:48;100718.34;;;-0.68;72.22
8699;BME280;4386;51.236;6.742;2022-12-13T06:05:51;100717.47;;;-0.67;72.62
8699;BME280;4386;51.236;6.742;2022-12-13T06:06:52;100715.75;;;-0.68;72.61
8699;BME280;4386;51.236;6.742;2022-12-13T06:07:56;100720.94;;;-0.68;72.45
8699;BME280;4386;51.236;6.742;2022-12-13T06:09:00;100717.47;;;-0.67;72.82
8699;BME280;4386;51.236;6.742;2022-12-13T06:10:04;100721.81;;;-0.67;72.55
8699;BME280;4386;51.236;6.742;2022-12-13T06:11:11;100718.34;;;-0.68;72.66
8699;BME280;4386;51.236;6.742;2022-12-13T06:12:33;100716.63;;;-0.69;72.68